createdAt,value
2018-03-27T00:01:57.155Z,13.15
2018-03-27T00:04:24.032Z,13.95
2018-03-27T00:06:50.965Z,13.52
2018-03-27T00:09:17.872Z,14.20
2018-03-27T00:11:44.810Z,13.45
2018-03-27T00:14:11.696Z,14.73
2018-03-27T00:16:38.630Z,13.82
2018-03-27T00:19:05.504Z,13.13
2018-03-27T00:21:32.466Z,13.57
2018-03-27T00:24:00.088Z,11.60
2018-03-27T00:26:27.064Z,13.25
2018-03-27T00:29:06.056Z,12.37
2018-03-27T00:31:45.082Z,12.15
2018-03-27T00:34:24.027Z,14.18
2018-03-27T00:37:03.064Z,13.73
2018-03-27T00:39:42.225Z,12.82
2018-03-27T00:42:29.976Z,12.45
2018-03-27T00:44:57.654Z,13.62
2018-03-27T00:47:24.574Z,11.68
2018-03-27T00:49:52.211Z,11.05
2018-03-27T00:52:19.158Z,11.82
2018-03-27T00:54:46.047Z,11.90
2018-03-27T00:57:12.937Z,11.30
2018-03-27T00:59:39.973Z,10.80
2018-03-27T01:02:08.938Z,12.25
2018-03-27T01:04:35.963Z,10.63
2018-03-27T01:07:02.879Z,12.18
2018-03-27T01:09:29.790Z,12.65
2018-03-27T01:11:56.751Z,13.60
2018-03-27T01:14:23.642Z,12.40
2018-03-27T01:16:51.336Z,11.07
2018-03-27T01:19:18.309Z,12.60
2018-03-27T01:21:45.310Z,12.55
2018-03-27T01:24:12.199Z,11.98
2018-03-27T01:26:39.129Z,11.70
2018-03-27T01:29:05.999Z,12.32
2018-03-27T01:31:32.931Z,12.80
2018-03-27T01:33:59.795Z,11.48
2018-03-27T01:36:26.678Z,11.55
2018-03-27T01:38:54.394Z,11.60
2018-03-27T01:41:21.319Z,11.93
2018-03-27T01:43:48.204Z,10.88
2018-03-27T01:46:15.157Z,10.35
2018-03-27T01:48:42.086Z,12.18
2018-03-27T01:51:09.021Z,10.20
2018-03-27T01:53:35.964Z,10.95
2018-03-27T01:56:02.832Z,11.95
2018-03-27T01:58:29.759Z,13.05
2018-03-27T02:00:56.628Z,11.35
2018-03-27T02:03:23.559Z,10.85
2018-03-27T02:05:50.488Z,11.15
2018-03-27T02:08:17.366Z,11.70
2018-03-27T02:10:44.147Z,10.90
2018-03-27T02:13:17.039Z,11.38
2018-03-27T02:15:49.985Z,10.85
2018-03-27T02:18:22.824Z,11.65
2018-03-27T02:20:55.785Z,12.37
2018-03-27T02:23:28.829Z,11.68
2018-03-27T02:25:55.714Z,11.50
2018-03-27T02:28:23.420Z,10.30
2018-03-27T02:31:00.899Z,10.75
2018-03-27T02:33:27.803Z,11.35
2018-03-27T02:35:55.486Z,9.10
2018-03-27T02:38:23.110Z,9.88
2018-03-27T02:40:50.034Z,9.98
2018-03-27T02:43:17.056Z,11.85
2018-03-27T02:45:43.928Z,9.63
2018-03-27T02:48:10.862Z,9.30
2018-03-27T02:50:37.880Z,10.80
2018-03-27T02:53:04.805Z,9.52
2018-03-27T02:55:31.764Z,10.30
2018-03-27T02:57:58.707Z,9.38
2018-03-27T03:00:26.400Z,10.60
2018-03-27T03:02:53.268Z,10.98
2018-03-27T03:05:20.652Z,9.75
2018-03-27T03:07:48.760Z,9.63
2018-03-27T03:10:15.654Z,9.57
2018-03-27T03:12:42.592Z,9.60
2018-03-27T03:15:09.463Z,10.35
2018-03-27T03:17:36.400Z,10.38
2018-03-27T03:20:03.352Z,11.30
2018-03-27T03:22:30.303Z,10.10
2018-03-27T03:24:57.243Z,11.10
2018-03-27T03:27:24.119Z,11.98
2018-03-27T03:29:51.732Z,13.15
2018-03-27T03:32:18.666Z,11.32
2018-03-27T03:34:45.530Z,11.82
2018-03-27T03:37:12.475Z,11.60
2018-03-27T03:39:39.340Z,11.45
2018-03-27T03:42:06.315Z,13.00
2018-03-27T03:44:33.186Z,11.48
2018-03-27T03:47:00.137Z,11.30
2018-03-27T03:49:27.011Z,11.50
2018-03-27T03:51:53.957Z,11.43
2018-03-27T03:54:20.887Z,12.85
2018-03-27T03:56:47.829Z,9.85
2018-03-27T03:59:14.778Z,10.57
2018-03-27T04:01:41.696Z,10.13
2018-03-27T04:04:08.652Z,9.98
2018-03-27T04:06:35.612Z,10.70
2018-03-27T04:09:02.608Z,11.48
2018-03-27T04:11:29.552Z,11.55
2018-03-27T04:13:56.435Z,11.95
2018-03-27T04:16:23.384Z,12.77
2018-03-27T04:18:50.358Z,13.50
2018-03-27T04:21:18.131Z,13.82
2018-03-27T04:23:45.081Z,13.90
2018-03-27T04:26:12.116Z,14.50
2018-03-27T04:28:39.789Z,14.45
2018-03-27T04:31:06.732Z,13.57
2018-03-27T04:33:33.598Z,14.45
2018-03-27T04:36:00.528Z,11.85
2018-03-27T04:38:27.413Z,14.55
2018-03-27T04:40:54.378Z,14.77
2018-03-27T04:43:21.260Z,15.10
2018-03-27T04:45:48.278Z,14.45
2018-03-27T04:48:15.164Z,13.38
2018-03-27T04:50:42.019Z,15.38
2018-03-27T04:53:08.951Z,14.75
2018-03-27T04:55:35.812Z,14.90
2018-03-27T04:58:03.432Z,15.93
2018-03-27T05:00:30.354Z,15.48
2018-03-27T05:02:57.220Z,19.02
2018-03-27T05:05:24.155Z,17.75
2018-03-27T05:07:51.073Z,18.48
2018-03-27T05:10:18.023Z,19.98
2018-03-27T05:12:44.928Z,22.52
2018-03-27T05:15:11.878Z,24.08
2018-03-27T05:17:38.752Z,23.87
2018-03-27T05:20:06.359Z,25.85
2018-03-27T05:22:33.301Z,24.12
2018-03-27T05:25:00.245Z,28.15
2018-03-27T05:27:27.124Z,25.88
2018-03-27T05:29:53.997Z,24.05
2018-03-27T05:32:21.768Z,26.73
2018-03-27T05:34:48.711Z,26.00
2018-03-27T05:37:16.322Z,26.10
2018-03-27T05:39:43.276Z,23.48
2018-03-27T05:42:10.143Z,22.60
2018-03-27T05:44:37.007Z,23.12
2018-03-27T05:47:04.022Z,22.42
2018-03-27T05:49:30.888Z,22.35
2018-03-27T05:51:58.564Z,22.13
2018-03-27T05:54:25.468Z,23.87
2018-03-27T05:56:53.231Z,25.92
2018-03-27T05:59:20.909Z,27.42
2018-03-27T06:01:47.784Z,25.45
2018-03-27T06:04:14.715Z,24.25
2018-03-27T06:06:42.474Z,26.23
2018-03-27T06:09:09.403Z,24.60
2018-03-27T06:11:36.389Z,21.77
2018-03-27T06:14:03.394Z,19.95
2018-03-27T06:16:30.398Z,21.10
2018-03-27T06:18:57.368Z,24.10
2018-03-27T06:21:24.308Z,25.10
2018-03-27T06:23:51.179Z,25.55
2018-03-27T06:26:18.057Z,28.45
2018-03-27T06:28:45.764Z,29.55
2018-03-27T06:31:12.702Z,26.92
2018-03-27T06:33:39.616Z,26.90
2018-03-27T06:36:06.561Z,25.07
2018-03-27T06:38:33.545Z,27.48
2018-03-27T06:41:00.624Z,28.70
2018-03-27T06:43:27.502Z,25.25
2018-03-27T06:45:54.458Z,27.48
2018-03-27T06:48:21.398Z,24.30
2018-03-27T06:50:48.295Z,27.67
2018-03-27T06:53:15.236Z,25.63
2018-03-27T06:55:42.199Z,27.80
2018-03-27T06:58:09.166Z,27.70
2018-03-27T07:00:40.108Z,25.00
2018-03-27T07:03:07.100Z,27.80
2018-03-27T07:05:40.947Z,28.03
2018-03-27T07:08:20.075Z,27.93
2018-03-27T07:11:00.810Z,27.30
2018-03-27T07:13:31.132Z,26.03
2018-03-27T07:16:00.360Z,25.63
2018-03-27T07:18:28.115Z,26.57
2018-03-27T07:21:00.592Z,27.83
2018-03-27T07:23:28.480Z,25.93
2018-03-27T07:26:00.305Z,24.73
2018-03-27T07:28:32.361Z,23.93
2018-03-27T07:31:03.496Z,24.70
2018-03-27T07:33:43.000Z,23.80
2018-03-27T07:36:14.234Z,23.90
2018-03-27T07:38:43.621Z,25.87
2018-03-27T07:41:11.855Z,24.27
2018-03-27T07:43:39.956Z,25.10
2018-03-27T07:46:07.850Z,24.80
2018-03-27T07:48:34.822Z,24.20
2018-03-27T07:51:03.216Z,23.53
2018-03-27T07:53:32.438Z,24.53
2018-03-27T07:55:59.329Z,24.43
2018-03-27T07:58:26.329Z,24.13
2018-03-27T08:03:33.663Z,23.57
2018-03-27T08:06:01.147Z,27.33
2018-03-27T08:08:34.890Z,26.20
2018-03-27T08:11:02.754Z,26.60
2018-03-27T08:13:43.468Z,24.30
2018-03-27T08:16:24.947Z,24.70
2018-03-27T08:19:04.527Z,24.97
2018-03-27T08:21:35.797Z,21.90
2018-03-27T08:24:03.416Z,21.37
2018-03-27T08:26:31.763Z,19.23
2018-03-27T08:28:58.885Z,21.10
2018-03-27T08:31:26.800Z,21.30
2018-03-27T08:33:53.950Z,20.37
2018-03-27T08:36:21.290Z,21.20
2018-03-27T08:38:48.166Z,17.47
2018-03-27T08:41:15.568Z,18.70
2018-03-27T08:43:43.593Z,20.43
2018-03-27T08:46:10.561Z,19.60
2018-03-27T08:48:37.491Z,15.60
2018-03-27T08:51:04.750Z,16.40
2018-03-27T08:53:33.075Z,18.70
2018-03-27T08:56:00.020Z,17.33
2018-03-27T08:58:26.920Z,15.40
2018-03-27T09:00:53.855Z,15.47
2018-03-27T09:03:20.707Z,16.50
2018-03-27T09:05:52.026Z,16.83
2018-03-27T09:08:20.141Z,13.70
2018-03-27T09:10:47.148Z,16.40
2018-03-27T09:13:14.056Z,16.60
2018-03-27T09:15:41.741Z,17.33
2018-03-27T09:18:09.701Z,18.60
2018-03-27T09:20:37.399Z,18.47
2018-03-27T09:23:07.753Z,19.63
2018-03-27T09:25:34.853Z,18.90
2018-03-27T09:28:01.747Z,20.30
2018-03-27T09:30:28.702Z,20.13
2018-03-27T09:32:55.842Z,21.30
2018-03-27T09:35:22.726Z,19.30
2018-03-27T09:37:54.865Z,17.23
2018-03-27T09:40:21.866Z,19.80
2018-03-27T09:42:48.770Z,19.67
2018-03-27T09:45:15.736Z,20.00
2018-03-27T09:47:43.405Z,21.13
2018-03-27T09:50:11.752Z,20.30
2018-03-27T09:52:39.500Z,19.10
2018-03-27T09:55:11.481Z,20.70
2018-03-27T09:57:49.464Z,19.70
2018-03-27T10:00:18.015Z,17.20
2018-03-27T10:02:56.493Z,16.80
2018-03-27T10:05:26.362Z,19.50
2018-03-27T10:07:54.351Z,20.00
2018-03-27T10:10:26.003Z,15.50
2018-03-27T10:12:53.057Z,17.67
2018-03-27T10:15:19.939Z,21.63
2018-03-27T10:17:46.852Z,17.40
2018-03-27T10:20:22.864Z,20.37
2018-03-27T10:22:49.914Z,18.27
2018-03-27T10:25:16.884Z,19.83
2018-03-27T10:27:43.831Z,19.20
2018-03-27T10:30:10.808Z,20.27
2018-03-27T10:32:37.669Z,20.80
2018-03-27T10:35:04.660Z,22.63
2018-03-27T10:37:40.690Z,22.77
2018-03-27T10:40:08.148Z,22.63
2018-03-27T10:42:47.393Z,23.80
2018-03-27T10:45:15.056Z,21.10
2018-03-27T10:47:41.934Z,22.87
2018-03-27T10:50:08.892Z,21.60
2018-03-27T10:52:35.783Z,20.97
2018-03-27T10:55:03.538Z,21.27
2018-03-27T10:57:30.422Z,21.67
2018-03-27T10:59:57.439Z,21.73
2018-03-27T11:02:25.062Z,20.77
2018-03-27T11:04:51.948Z,22.10
2018-03-27T11:07:18.922Z,22.43
2018-03-27T11:09:45.780Z,23.33
2018-03-27T11:12:12.699Z,23.50
2018-03-27T11:14:39.573Z,22.67
2018-03-27T11:17:06.525Z,23.63
2018-03-27T11:19:33.444Z,24.80
2018-03-27T11:22:00.391Z,22.57
2018-03-27T11:24:27.345Z,21.27
2018-03-27T11:26:54.375Z,21.80
2018-03-27T11:29:21.274Z,23.07
2018-03-27T11:31:48.157Z,21.43
2018-03-27T11:34:15.170Z,22.77
2018-03-27T11:36:42.149Z,20.80
2018-03-27T11:39:09.196Z,23.20
2018-03-27T11:41:36.060Z,20.20
2018-03-27T11:44:03.038Z,21.67
2018-03-27T11:46:29.939Z,20.07
2018-03-27T11:48:57.652Z,20.70
2018-03-27T11:51:24.674Z,21.97
2018-03-27T11:53:51.592Z,19.67
2018-03-27T11:56:19.287Z,19.97
2018-03-27T11:58:46.172Z,21.23
2018-03-27T12:01:13.375Z,20.10
2018-03-27T12:03:40.253Z,20.70
2018-03-27T12:06:07.167Z,20.20
2018-03-27T12:08:34.165Z,20.50
2018-03-27T12:11:01.100Z,22.10
2018-03-27T12:13:28.037Z,20.60
2018-03-27T12:15:55.004Z,19.57
2018-03-27T12:18:21.987Z,18.80
2018-03-27T12:20:48.870Z,17.60
2018-03-27T12:23:18.660Z,19.50
2018-03-27T12:25:45.706Z,18.30
2018-03-27T12:28:12.581Z,18.40
2018-03-27T12:30:39.575Z,19.10
2018-03-27T12:33:06.603Z,18.40
2018-03-27T12:35:33.577Z,21.13
2018-03-27T12:38:00.500Z,19.20
2018-03-27T12:40:27.461Z,18.50
2018-03-27T12:42:54.354Z,17.73
2018-03-27T12:45:21.337Z,17.33
2018-03-27T12:47:48.358Z,18.70
2018-03-27T12:50:15.276Z,20.00
2018-03-27T12:52:42.218Z,20.10
2018-03-27T12:55:09.112Z,19.60
2018-03-27T12:57:36.051Z,19.10
2018-03-27T13:00:03.029Z,17.30
2018-03-27T13:02:29.997Z,19.40
2018-03-27T13:04:56.900Z,19.60
2018-03-27T13:07:23.787Z,18.73
2018-03-27T13:09:50.759Z,19.27
2018-03-27T13:12:17.635Z,19.87
2018-03-27T13:14:44.631Z,18.77
2018-03-27T13:17:11.508Z,19.67
2018-03-27T13:19:38.490Z,17.97
2018-03-27T13:22:06.115Z,19.27
2018-03-27T13:24:32.998Z,19.73
2018-03-27T13:27:00.793Z,20.93
2018-03-27T13:29:27.702Z,20.43
2018-03-27T13:31:54.609Z,19.87
2018-03-27T13:34:21.564Z,21.30
2018-03-27T13:36:48.464Z,18.27
2018-03-27T13:39:15.497Z,18.73
2018-03-27T13:41:43.207Z,18.57
2018-03-27T13:44:10.153Z,20.17
2018-03-27T13:46:37.108Z,21.70
2018-03-27T13:49:04.051Z,19.20
2018-03-27T13:51:30.983Z,21.93
2018-03-27T13:53:57.948Z,19.37
2018-03-27T13:56:24.818Z,20.87
2018-03-27T13:58:51.770Z,20.70
2018-03-27T14:01:18.695Z,20.77
2018-03-27T14:03:45.645Z,19.60
2018-03-27T14:06:12.540Z,21.40
2018-03-27T14:08:39.664Z,19.43
2018-03-27T14:11:06.957Z,19.20
2018-03-27T14:13:33.923Z,18.90
2018-03-27T14:16:01.516Z,19.60
2018-03-27T14:18:28.421Z,19.90
2018-03-27T14:20:55.367Z,20.40
2018-03-27T14:23:22.244Z,22.43
2018-03-27T14:25:49.189Z,22.73
2018-03-27T14:28:16.101Z,21.60
2018-03-27T14:30:43.080Z,21.20
2018-03-27T14:33:10.003Z,21.37
2018-03-27T14:35:36.992Z,20.20
2018-03-27T14:38:05.595Z,24.90
2018-03-27T14:40:32.628Z,23.97
2018-03-27T14:43:00.264Z,21.47
2018-03-27T14:45:27.221Z,22.77
2018-03-27T14:47:54.141Z,20.73
2018-03-27T14:50:21.047Z,20.80
2018-03-27T14:52:48.020Z,20.97
2018-03-27T14:55:15.012Z,20.53
2018-03-27T14:57:41.944Z,21.70
2018-03-27T15:00:08.864Z,23.30
2018-03-27T15:02:35.807Z,25.03
2018-03-27T15:05:02.756Z,24.30
2018-03-27T15:07:29.707Z,23.70
2018-03-27T15:09:56.694Z,22.30
2018-03-27T15:12:24.429Z,22.43
2018-03-27T15:14:51.328Z,23.90
2018-03-27T15:17:19.170Z,24.20
2018-03-27T15:19:46.127Z,21.90
2018-03-27T15:22:13.119Z,24.00
2018-03-27T15:24:40.101Z,22.80
2018-03-27T15:27:07.049Z,23.23
2018-03-27T15:29:33.914Z,23.17
2018-03-27T15:32:00.870Z,23.47
2018-03-27T15:34:27.975Z,21.30
2018-03-27T15:36:55.009Z,21.73
2018-03-27T15:39:21.962Z,21.70
2018-03-27T15:41:49.024Z,19.37
2018-03-27T15:44:15.981Z,21.37
2018-03-27T15:46:42.873Z,21.83
2018-03-27T15:49:09.860Z,20.77
2018-03-27T15:51:36.760Z,22.20
2018-03-27T15:54:03.725Z,20.80
2018-03-27T15:56:30.700Z,20.90
2018-03-27T15:58:57.607Z,21.90
2018-03-27T16:01:24.654Z,20.13
2018-03-27T16:03:51.568Z,20.30
2018-03-27T16:06:18.440Z,20.40
2018-03-27T16:08:45.485Z,19.73
2018-03-27T16:11:12.435Z,20.70
2018-03-27T16:13:39.385Z,24.17
2018-03-27T16:16:06.357Z,26.77
2018-03-27T16:18:33.298Z,24.30
2018-03-27T16:21:00.180Z,24.50
2018-03-27T16:23:27.128Z,27.47
2018-03-27T16:25:54.029Z,26.30
2018-03-27T16:28:21.044Z,28.00
2018-03-27T16:30:47.997Z,27.10
2018-03-27T16:33:14.872Z,26.50
2018-03-27T16:35:41.814Z,26.27
2018-03-27T16:38:08.707Z,26.80
2018-03-27T16:40:36.479Z,26.53
2018-03-27T16:43:03.415Z,24.50
2018-03-27T16:45:30.358Z,27.27
2018-03-27T16:47:57.242Z,28.97
2018-03-27T16:50:24.204Z,26.87
2018-03-27T16:52:51.136Z,25.97
2018-03-27T16:55:18.044Z,25.27
2018-03-27T16:57:44.988Z,25.93
2018-03-27T17:00:11.932Z,26.53
2018-03-27T17:02:38.823Z,25.10
2018-03-27T17:05:05.786Z,25.47
2018-03-27T17:07:32.695Z,24.60
2018-03-27T17:09:59.680Z,25.80
2018-03-27T17:12:26.620Z,24.20
2018-03-27T17:14:53.512Z,22.23
2018-03-27T17:17:20.567Z,25.73
2018-03-27T17:19:48.208Z,25.37
2018-03-27T17:22:15.205Z,23.20
2018-03-27T17:24:42.094Z,23.53
2018-03-27T17:27:09.052Z,23.43
2018-03-27T17:29:35.916Z,24.10
2018-03-27T17:32:03.677Z,24.30
2018-03-27T17:34:30.554Z,27.07
2018-03-27T17:36:57.524Z,27.53
2018-03-27T17:39:24.464Z,25.00
2018-03-27T17:41:51.414Z,24.17
2018-03-27T17:44:18.365Z,28.00
2018-03-27T17:46:45.807Z,25.73
2018-03-27T17:49:12.699Z,25.70
2018-03-27T17:51:39.576Z,26.43
2018-03-27T17:54:06.532Z,24.60
2018-03-27T17:56:33.406Z,26.17
2018-03-27T17:59:00.352Z,27.30
2018-03-27T18:01:27.260Z,27.17
2018-03-27T18:03:54.227Z,27.30
2018-03-27T18:06:21.122Z,26.67
2018-03-27T18:08:48.080Z,25.63
2018-03-27T18:11:15.776Z,27.30
2018-03-27T18:13:42.712Z,26.17
2018-03-27T18:16:09.688Z,28.50
2018-03-27T18:18:36.830Z,26.20
2018-03-27T18:21:03.826Z,25.93
2018-03-27T18:23:30.783Z,26.07
2018-03-27T18:25:57.790Z,26.73
2018-03-27T18:28:24.676Z,24.13
2018-03-27T18:30:51.635Z,24.30
2018-03-27T18:33:18.545Z,24.97
2018-03-27T18:35:45.484Z,23.70
2018-03-27T18:38:12.419Z,23.60
2018-03-27T18:40:39.372Z,23.12
2018-03-27T18:43:06.337Z,25.17
2018-03-27T18:45:33.233Z,24.30
2018-03-27T18:48:00.242Z,23.27
2018-03-27T18:50:27.126Z,24.90
2018-03-27T18:52:54.089Z,24.80
2018-03-27T18:55:21.041Z,25.07
2018-03-27T18:57:47.939Z,24.45
2018-03-27T19:00:14.904Z,23.62
2018-03-27T19:02:41.813Z,25.08
2018-03-27T19:05:08.922Z,24.35
2018-03-27T19:07:37.851Z,29.33
2018-03-27T19:10:05.561Z,25.88
2018-03-27T19:12:32.532Z,25.23
2018-03-27T19:15:00.357Z,24.50
2018-03-27T19:17:27.251Z,23.48
2018-03-27T19:19:54.605Z,24.60
2018-03-27T19:22:21.562Z,26.75
2018-03-27T19:24:48.525Z,24.52
2018-03-27T19:27:16.220Z,25.13
2018-03-27T19:29:43.167Z,24.80
2018-03-27T19:32:10.116Z,25.53
2018-03-27T19:34:37.127Z,23.60
2018-03-27T19:37:04.101Z,24.27
2018-03-27T19:39:31.036Z,24.30
2018-03-27T19:41:58.745Z,24.83
2018-03-27T19:44:26.360Z,24.87
2018-03-27T19:46:53.292Z,25.62
2018-03-27T19:49:20.168Z,25.15
2018-03-27T19:51:47.121Z,24.73
2018-03-27T19:54:14.159Z,22.98
2018-03-27T19:56:41.184Z,24.77
2018-03-27T19:59:18.539Z,25.48
2018-03-27T20:01:48.000Z,25.83
2018-03-27T20:04:24.768Z,25.17
2018-03-27T20:07:01.446Z,25.12
2018-03-27T20:09:39.296Z,24.67
2018-03-27T20:12:13.716Z,24.63
2018-03-27T20:14:41.071Z,26.17
2018-03-27T20:17:08.019Z,27.65
2018-03-27T20:19:34.969Z,25.15
2018-03-27T20:22:01.966Z,25.95
2018-03-27T20:24:29.643Z,26.80
2018-03-27T20:27:05.868Z,25.33
2018-03-27T20:29:33.624Z,25.80
2018-03-27T20:32:05.883Z,28.62
2018-03-27T20:34:33.809Z,25.70
2018-03-27T20:37:02.136Z,31.10
2018-03-27T20:39:30.691Z,27.15
2018-03-27T20:41:57.772Z,25.85
2018-03-27T20:44:24.719Z,24.98
2018-03-27T20:46:51.720Z,24.85
2018-03-27T20:49:18.963Z,26.35
2018-03-27T20:51:45.876Z,25.23
2018-03-27T20:54:12.815Z,26.05
2018-03-27T20:56:42.963Z,27.17
2018-03-27T20:59:10.759Z,26.05
2018-03-27T21:01:37.671Z,25.58
2018-03-27T21:04:05.983Z,25.25
2018-03-27T21:06:33.032Z,24.10
2018-03-27T21:09:00.613Z,23.60
2018-03-27T21:11:28.740Z,25.00
2018-03-27T21:13:57.378Z,25.45
2018-03-27T21:16:24.389Z,26.27
2018-03-27T21:18:52.256Z,25.83
2018-03-27T21:21:19.277Z,24.25
2018-03-27T21:23:47.032Z,23.77
2018-03-27T21:26:15.485Z,24.85
2018-03-27T21:28:43.485Z,23.90
2018-03-27T21:31:10.452Z,26.05
2018-03-27T21:33:38.080Z,24.77
2018-03-27T21:36:05.049Z,24.50
2018-03-27T21:38:31.965Z,25.12
2018-03-27T21:40:58.911Z,27.85
2018-03-27T21:43:25.916Z,25.30
2018-03-27T21:46:02.565Z,25.48
2018-03-27T21:48:41.693Z,26.85
2018-03-27T21:51:10.569Z,25.50
2018-03-27T21:53:37.461Z,26.20
2018-03-27T21:56:04.404Z,23.23
2018-03-27T21:58:31.395Z,26.40
2018-03-27T22:00:59.335Z,23.33
2018-03-27T22:03:39.392Z,24.63
2018-03-27T22:06:06.345Z,23.25
2018-03-27T22:08:33.307Z,22.98
2018-03-27T22:11:00.256Z,20.37
2018-03-27T22:13:28.310Z,23.10
2018-03-27T22:15:57.048Z,22.02
2018-03-27T22:18:24.059Z,22.37
2018-03-27T22:20:51.050Z,22.85
2018-03-27T22:23:18.692Z,22.42
2018-03-27T22:25:45.663Z,21.20
2018-03-27T22:28:13.328Z,21.20
2018-03-27T22:30:41.119Z,21.85
2018-03-27T22:33:07.992Z,21.40
2018-03-27T22:35:34.892Z,21.10
2018-03-27T22:38:01.845Z,21.40
2018-03-27T22:40:28.836Z,25.17
2018-03-27T22:42:55.716Z,22.87
2018-03-27T22:45:23.344Z,21.75
2018-03-27T22:47:50.348Z,22.80
2018-03-27T22:50:17.236Z,22.90
2018-03-27T22:52:44.175Z,25.05
2018-03-27T22:55:11.071Z,23.10
2018-03-27T22:57:38.771Z,25.27
2018-03-27T23:00:05.715Z,26.77
2018-03-27T23:02:32.677Z,24.95
2018-03-27T23:04:59.559Z,22.00
2018-03-27T23:07:26.571Z,22.87
2018-03-27T23:09:53.457Z,23.33
2018-03-27T23:12:21.227Z,25.02
2018-03-27T23:14:48.126Z,24.75
2018-03-27T23:17:14.992Z,25.12
2018-03-27T23:19:42.015Z,24.70
2018-03-27T23:22:09.064Z,26.15
2018-03-27T23:24:35.999Z,27.35
2018-03-27T23:27:02.948Z,25.52
2018-03-27T23:29:29.880Z,25.27
2018-03-27T23:31:56.752Z,25.33
2018-03-27T23:34:23.683Z,24.50
2018-03-27T23:36:50.614Z,24.65
2018-03-27T23:39:17.560Z,26.90
2018-03-27T23:41:44.503Z,25.12
2018-03-27T23:44:11.461Z,28.98
2018-03-27T23:46:38.399Z,23.60
2018-03-27T23:49:05.352Z,25.75
2018-03-27T23:51:32.278Z,27.37
2018-03-27T23:53:59.225Z,28.25
2018-03-27T23:56:26.118Z,25.75
2018-03-27T23:58:53.052Z,25.75
